This is the latest recevied weather packets stored in our database for station/object HS9UAC-10. If no packets are shown the sender has not sent any weather packets the latest 10 day(s).
| Time | Temp. | Humidity | Pressure | Rain* | Wind** | Luminosity | Snow |
|---|---|---|---|---|---|---|---|
| 1777477032 | 36.67° C | 68% | 1009 hPa | - | - | 0 W/m² | - |
| 1777476108 | 36.11° C | 68% | 1009 hPa | - | - | 0 W/m² | - |
| 1777475183 | 36.11° C | 68% | 1009 hPa | - | - | 0 W/m² | - |
| 1777474259 | 36.11° C | 69% | 1008 hPa | - | - | 0 W/m² | - |
| 1777473334 | 35.56° C | 70% | 1008 hPa | - | - | 0 W/m² | - |
| 1777472409 | 35.56° C | 72% | 1008 hPa | - | - | 0 W/m² | - |
| 1777471485 | 35.56° C | 74% | 1008 hPa | - | - | 0 W/m² | - |
| 1777470560 | 35.56° C | 72% | 1008 hPa | - | - | 0 W/m² | - |
| 1777469636 | 36.11° C | 71% | 1008 hPa | - | - | 0 W/m² | - |
| 1777468711 | 36.11° C | 72% | 1007 hPa | - | - | 0 W/m² | - |
| 1777467786 | 35° C | 77% | 1007 hPa | - | - | 0 W/m² | - |
| 1777466862 | 36.11° C | 71% | 1007 hPa | - | - | 0 W/m² | - |
| 1777465937 | 36.11° C | 70% | 1007 hPa | - | - | 0 W/m² | - |
| 1777465013 | 34.44° C | 79% | 1007 hPa | - | - | 0 W/m² | - |
| 1777464088 | 34.44° C | 80% | 1006 hPa | - | - | 0 W/m² | - |
| 1777463164 | 36.11° C | 69% | 1006 hPa | - | - | 0 W/m² | - |
| 1777462239 | 36.11° C | 71% | 1006 hPa | - | - | 0 W/m² | - |
| 1777461315 | 36.67° C | 69% | 1006 hPa | - | - | 0 W/m² | - |
| 1777460390 | 36.67° C | 67% | 1006 hPa | - | - | 0 W/m² | - |
| 1777459465 | 37.22° C | 61% | 1005 hPa | - | - | 0 W/m² | - |
| 1777458541 | 38.89° C | 55% | 1005 hPa | - | - | 0 W/m² | - |
| 1777457616 | 40.56° C | 49% | 1005 hPa | - | - | 0 W/m² | - |
| 1777456691 | 41.67° C | 46% | 1005 hPa | - | - | 0 W/m² | - |
| 1777455766 | 42.78° C | 44% | 1005 hPa | - | - | 0 W/m² | - |
| 1777454852 | 43.89° C | 42% | 1005 hPa | - | - | 0 W/m² | - |
* Rain since midnight (hover to see other rain measurements)
** Current wind speed in m/s (hover to see current wind gust speed)